Time;durP1;ratioP1;P1;durP2;ratioP2;P2;SDS_P1;SDS_P2;PMS_P1;PMS_P2;Temp;Humidity;BMP_temperature;BMP_pressure;BME280_temperature;BME280_humidity;BME280_pressure;Samples;Min_cycle;Max_cycle;Signal;HPM_P1;HPM_P2
2021/05/17 00:00:32;;;;;;;2.88;1.45;;;;;;;9.90;76.83;99897.38;5007116;28;20480;-84
2021/05/17 00:03:00;;;;;;;2.20;1.40;;;;;;;9.90;77.26;99903.56;5027394;28;20017;-83
2021/05/17 00:05:25;;;;;;;4.57;1.52;;;;;;;9.89;77.25;99914.50;5030828;28;20052;-85
2021/05/17 00:07:51;;;;;;;4.35;1.60;;;;;;;9.87;77.54;99914.72;5010752;28;20022;-84
2021/05/17 00:10:17;;;;;;;3.30;2.03;;;;;;;9.83;77.08;99913.41;5029869;28;20018;-84
2021/05/17 00:12:42;;;;;;;1.80;1.15;;;;;;;9.78;77.34;99915.00;5029078;28;20590;-84
2021/05/17 00:15:12;;;;;;;2.60;1.42;;;;;;;9.63;77.08;99899.81;5032730;28;20108;-83
2021/05/17 00:17:39;;;;;;;3.88;1.60;;;;;;;9.68;76.92;99907.25;5026366;28;20053;-84
2021/05/17 00:20:06;;;;;;;2.15;1.45;;;;;;;9.68;76.94;99918.84;5018921;28;20033;-82
2021/05/17 00:22:31;;;;;;;2.42;1.48;;;;;;;9.56;77.58;99915.00;5012965;28;20029;-83
2021/05/17 00:24:57;;;;;;;2.50;1.73;;;;;;;9.55;77.55;99921.41;5016276;28;20082;-84
2021/05/17 00:27:22;;;;;;;5.85;1.55;;;;;;;9.51;77.55;99919.28;5032580;28;20032;-83
2021/05/17 00:29:48;;;;;;;2.25;1.35;;;;;;;9.52;77.89;99916.38;5027871;28;20029;-84
2021/05/17 00:32:14;;;;;;;4.50;1.50;;;;;;;9.63;77.11;99921.28;5013209;28;20510;-85
2021/05/17 00:34:39;;;;;;;3.30;1.58;;;;;;;9.71;77.01;99930.22;5011889;28;20029;-85
2021/05/17 00:37:05;;;;;;;5.63;1.75;;;;;;;9.76;76.25;99917.06;5032217;28;20124;-83
2021/05/17 00:39:31;;;;;;;2.67;1.33;;;;;;;9.86;76.36;99936.38;5025190;28;20076;-83
2021/05/17 00:41:56;;;;;;;5.28;1.67;;;;;;;9.68;75.59;99913.50;5031348;28;20044;-84
2021/05/17 00:44:22;;;;;;;1.80;1.27;;;;;;;9.79;76.04;99936.31;5013396;28;20037;-82
2021/05/17 00:46:48;;;;;;;3.92;1.55;;;;;;;9.82;76.10;99943.97;5010720;28;20116;-84
2021/05/17 00:49:13;;;;;;;2.88;1.67;;;;;;;9.79;75.48;99930.94;5024715;28;20029;-84
2021/05/17 00:51:39;;;;;;;2.30;1.60;;;;;;;9.77;75.23;99926.78;5025436;28;20029;-86
2021/05/17 00:54:06;;;;;;;2.92;1.30;;;;;;;9.83;75.26;99939.44;5023497;28;20080;-82
2021/05/17 00:56:32;;;;;;;3.70;1.45;;;;;;;9.82;75.75;99945.84;5049376;28;20757;-84
2021/05/17 00:58:58;;;;;;;4.90;1.55;;;;;;;9.83;75.81;99947.50;5011319;28;20126;-85
2021/05/17 01:01:23;;;;;;;6.88;1.70;;;;;;;9.78;75.48;99941.84;5016378;28;20125;-83
2021/05/17 01:03:49;;;;;;;4.20;1.40;;;;;;;9.68;75.19;99928.75;5012706;28;20036;-85
2021/05/17 01:06:17;;;;;;;2.17;1.27;;;;;;;9.82;74.83;99949.34;5014807;28;20604;-85
2021/05/17 01:08:52;;;;;;;3.45;1.33;;;;;;;9.73;75.56;99941.59;5010962;28;20033;-86
2021/05/17 01:11:18;;;;;;;2.88;1.52;;;;;;;9.83;75.23;99950.19;5013783;28;20118;-84
2021/05/17 01:13:44;;;;;;;2.03;1.38;;;;;;;9.80;75.02;99940.66;5009905;28;20022;-84
2021/05/17 01:16:10;;;;;;;3.92;1.60;;;;;;;9.86;74.68;99956.00;5010971;28;20033;-84
2021/05/17 01:18:36;;;;;;;2.75;1.45;;;;;;;9.72;74.95;99948.81;5023940;28;20036;-84
2021/05/17 01:21:01;;;;;;;4.47;1.50;;;;;;;9.80;75.33;99966.66;5027053;28;20033;-84
2021/05/17 01:25:57;;;;;;;3.97;1.27;;;;;;;9.74;75.24;99967.41;5028744;28;20032;-84
2021/05/17 01:28:29;;;;;;;5.75;1.48;;;;;;;9.83;75.21;99968.97;5023622;28;20033;-85
2021/05/17 01:31:01;;;;;;;2.83;1.50;;;;;;;9.79;75.30;99975.72;5024539;28;20032;-83
2021/05/17 01:33:30;;;;;;;3.95;1.40;;;;;;;9.64;76.13;99981.97;5029594;28;20021;-84
2021/05/17 01:35:58;;;;;;;4.72;1.70;;;;;;;9.57;76.34;99983.75;5011729;28;20017;-84
2021/05/17 01:38:25;;;;;;;2.50;1.42;;;;;;;9.48;76.39;99979.53;5010580;28;20436;-82
2021/05/17 01:40:50;;;;;;;3.40;1.48;;;;;;;9.30;76.81;99963.81;5013629;28;20029;-86
2021/05/17 01:43:16;;;;;;;4.85;1.60;;;;;;;9.29;76.86;99975.56;5020165;28;20025;-84
2021/05/17 01:45:44;;;;;;;3.17;1.30;;;;;;;9.26;76.57;99986.66;5014208;28;20025;-84
2021/05/17 01:48:09;;;;;;;3.13;1.40;;;;;;;9.24;77.24;99992.22;5006996;28;20029;-83
2021/05/17 01:50:36;;;;;;;2.72;1.50;;;;;;;9.16;77.58;99992.31;5007826;28;20017;-83
2021/05/17 01:53:03;;;;;;;3.67;1.63;;;;;;;9.06;77.74;99982.88;5011051;28;20037;-84
2021/05/17 01:55:29;;;;;;;3.72;1.42;;;;;;;9.11;77.69;100002.75;5026347;28;20036;-84
2021/05/17 01:58:21;;;;;;;4.15;1.70;;;;;;;9.02;77.94;99990.44;5020632;28;20038;-85
2021/05/17 02:00:47;;;;;;;2.25;1.23;;;;;;;9.01;78.51;99999.53;5007263;28;20539;-83
2021/05/17 02:03:12;;;;;;;2.10;1.20;;;;;;;8.97;77.95;100003.56;5027098;28;20100;-85
2021/05/17 02:05:38;;;;;;;3.50;1.33;;;;;;;8.97;78.21;100000.91;5018316;28;20483;-84
2021/05/17 02:08:04;;;;;;;2.95;1.30;;;;;;;8.84;79.02;99981.94;5007387;28;20076;-84
2021/05/17 02:10:31;;;;;;;2.75;1.20;;;;;;;8.98;78.87;100005.25;5025124;28;20028;-82
2021/05/17 02:12:58;;;;;;;3.15;1.38;;;;;;;8.96;78.56;100001.91;5012528;28;20021;-84
2021/05/17 02:15:24;;;;;;;2.33;1.20;;;;;;;8.89;78.61;100000.97;5030161;28;20021;-82
2021/05/17 02:18:08;;;;;;;3.85;1.35;;;;;;;8.91;79.18;100012.34;5029895;28;20097;-83
2021/05/17 02:20:36;;;;;;;2.20;1.25;;;;;;;8.87;79.10;100019.94;5026999;28;20025;-85
2021/05/17 02:23:03;;;;;;;2.22;1.30;;;;;;;8.89;79.10;100027.78;5036823;28;20583;-82
2021/05/17 02:25:29;;;;;;;4.70;1.80;;;;;;;8.85;79.53;100018.47;5006204;28;21736;-84
2021/05/17 02:27:56;;;;;;;3.47;1.60;;;;;;;8.90;79.42;100029.47;5008760;28;20034;-84
2021/05/17 02:30:23;;;;;;;3.17;1.40;;;;;;;8.84;79.34;100022.13;5008629;28;20635;-84
2021/05/17 02:32:48;;;;;;;4.57;1.48;;;;;;;8.78;79.65;100021.84;5009575;28;20037;-84
2021/05/17 02:35:15;;;;;;;2.22;1.20;;;;;;;8.71;79.65;100033.50;5007573;28;20480;-83
2021/05/17 02:37:40;;;;;;;2.70;1.27;;;;;;;8.68;80.20;100031.16;5026509;28;20417;-85
2021/05/17 02:40:06;;;;;;;2.22;1.30;;;;;;;8.71;80.34;100031.66;5029780;28;20025;-84
2021/05/17 02:42:34;;;;;;;3.22;1.25;;;;;;;8.68;80.03;100028.50;5015509;28;20049;-83
2021/05/17 02:45:04;;;;;;;4.97;1.60;;;;;;;8.63;80.37;100021.00;5016052;28;20401;-85
2021/05/17 02:47:36;;;;;;;3.10;1.40;;;;;;;8.69;80.06;100027.50;5011363;28;20030;-83
2021/05/17 02:50:03;;;;;;;2.80;1.30;;;;;;;8.62;80.38;100043.44;5006222;28;20029;-85
2021/05/17 02:52:33;;;;;;;4.63;1.38;;;;;;;8.62;80.16;100045.31;5024918;28;20017;-83
2021/05/17 02:55:15;;;;;;;2.67;1.40;;;;;;;8.60;80.80;100034.78;5029702;28;20108;-85
2021/05/17 02:57:49;;;;;;;2.30;1.38;;;;;;;8.69;80.53;100062.34;4999566;28;20018;-85
2021/05/17 03:00:22;;;;;;;3.65;1.40;;;;;;;8.55;80.37;100050.56;5028689;28;20123;-83
2021/05/17 03:02:53;;;;;;;3.58;1.75;;;;;;;8.57;80.44;100057.41;5008724;28;20040;-84
2021/05/17 03:05:19;;;;;;;2.60;1.48;;;;;;;8.54;80.73;100056.91;5029750;28;20029;-83
2021/05/17 03:07:48;;;;;;;2.95;1.35;;;;;;;8.61;79.35;100062.41;5029194;28;20029;-84
2021/05/17 03:10:14;;;;;;;6.25;1.40;;;;;;;8.51;79.75;100057.28;5011889;28;20021;-83
2021/05/17 03:12:40;;;;;;;4.45;1.27;;;;;;;8.40;80.35;100055.84;5031369;28;20025;-84
2021/05/17 03:15:06;;;;;;;3.50;1.50;;;;;;;8.24;79.94;100045.22;5014418;28;20418;-84
2021/05/17 03:17:32;;;;;;;2.45;1.30;;;;;;;8.22;80.19;100047.25;5012809;28;20492;-82
2021/05/17 03:19:57;;;;;;;3.38;1.25;;;;;;;8.17;80.49;100058.50;5023270;28;20040;-84
2021/05/17 03:22:23;;;;;;;3.60;1.23;;;;;;;8.01;81.13;100051.38;5018251;28;20690;-84
2021/05/17 03:24:51;;;;;;;2.88;1.17;;;;;;;7.97;81.30;100051.94;5026447;28;20029;-84
2021/05/17 03:27:22;;;;;;;3.65;1.45;;;;;;;7.87;81.82;100047.63;5014035;28;20017;-84
2021/05/17 03:29:48;;;;;;;1.73;1.33;;;;;;;7.78;81.70;100050.50;5013805;28;20686;-83
2021/05/17 03:32:13;;;;;;;5.07;1.40;;;;;;;7.79;82.33;100061.06;5039389;28;20043;-83
2021/05/17 03:34:39;;;;;;;4.47;1.35;;;;;;;7.69;82.52;100058.59;5009955;28;20527;-84
2021/05/17 03:37:05;;;;;;;2.92;1.27;;;;;;;7.70;82.77;100068.28;5012493;28;20031;-84
2021/05/17 03:39:31;;;;;;;2.30;1.30;;;;;;;7.77;83.16;100079.13;5013601;28;20091;-84
2021/05/17 03:41:56;;;;;;;2.25;1.35;;;;;;;7.74;82.64;100081.31;5014480;28;20037;-84
2021/05/17 03:44:21;;;;;;;1.65;1.27;;;;;;;7.38;83.04;100033.63;5031683;28;20392;-83
2021/05/17 03:46:47;;;;;;;2.78;1.30;;;;;;;7.60;82.92;100064.16;5033793;28;20049;-84
2021/05/17 03:49:12;;;;;;;3.40;1.02;;;;;;;7.45;83.00;100046.13;5022843;28;20075;-83
2021/05/17 03:51:37;;;;;;;3.10;1.20;;;;;;;7.63;82.86;100079.88;5018933;28;20431;-84
2021/05/17 03:54:03;;;;;;;3.05;1.38;;;;;;;7.62;82.76;100078.19;5020807;28;20036;-84
2021/05/17 03:56:29;;;;;;;2.50;1.10;;;;;;;7.64;82.62;100087.69;5016821;28;20062;-83
2021/05/17 03:58:54;;;;;;;3.03;1.30;;;;;;;7.56;82.65;100079.72;5016569;28;20027;-84
2021/05/17 04:01:19;;;;;;;5.75;1.13;;;;;;;7.61;82.64;100092.56;5035098;28;20502;-84
2021/05/17 04:03:45;;;;;;;4.60;1.27;;;;;;;7.43;82.77;100077.56;5041136;28;20036;-83
2021/05/17 04:06:17;;;;;;;1.70;1.05;;;;;;;7.42;83.05;100083.94;5018285;28;20029;-84
2021/05/17 04:13:53;;;;;;;2.55;1.20;;;;;;;7.45;83.38;100104.16;5030581;28;20554;-84
2021/05/17 04:16:19;;;;;;;4.63;1.30;;;;;;;7.39;84.09;100111.03;5015479;28;20029;-83
2021/05/17 04:18:45;;;;;;;3.85;1.30;;;;;;;7.30;83.78;100105.88;5027968;28;20661;-84
2021/05/17 04:21:11;;;;;;;2.08;0.90;;;;;;;7.30;84.20;100120.06;5027380;28;20045;-84
2021/05/17 04:23:36;;;;;;;2.80;1.30;;;;;;;7.24;83.97;100105.53;5024159;28;20788;-83
2021/05/17 04:26:02;;;;;;;2.03;1.30;;;;;;;7.29;83.87;100114.91;5013041;28;20029;-85
2021/05/17 04:28:27;;;;;;;1.83;1.20;;;;;;;7.11;83.78;100086.50;5032608;28;20495;-84
2021/05/17 04:30:52;;;;;;;2.42;1.30;;;;;;;7.35;83.09;100132.94;5028849;28;20060;-84
2021/05/17 04:33:19;;;;;;;3.97;1.23;;;;;;;7.32;83.32;100133.28;5015067;28;20098;-84
2021/05/17 04:35:44;;;;;;;1.75;1.05;;;;;;;7.42;83.58;100139.28;5018731;28;20110;-85
2021/05/17 04:38:09;;;;;;;2.17;1.15;;;;;;;7.42;83.02;100141.94;5009982;28;20489;-84
2021/05/17 04:40:35;;;;;;;2.50;1.02;;;;;;;7.39;82.82;100126.25;5014161;28;20033;-84
2021/05/17 04:43:00;;;;;;;2.58;0.95;;;;;;;7.44;82.62;100127.41;5013684;28;20037;-84
2021/05/17 04:45:26;;;;;;;1.20;0.90;;;;;;;7.48;81.44;100135.91;5015246;28;20381;-84
2021/05/17 04:47:52;;;;;;;3.03;1.40;;;;;;;7.52;82.18;100163.19;5035408;28;20029;-83
2021/05/17 04:50:17;;;;;;;3.17;1.55;;;;;;;7.34;81.62;100137.44;5014773;28;20025;-83
2021/05/17 04:52:43;;;;;;;1.77;1.13;;;;;;;7.52;81.84;100163.19;5016007;28;20025;-84
2021/05/17 04:55:09;;;;;;;2.65;0.90;;;;;;;7.43;81.49;100155.13;5015672;28;20038;-84
2021/05/17 04:57:34;;;;;;;2.80;1.02;;;;;;;7.42;81.99;100158.84;5022534;28;20094;-84
2021/05/17 05:00:00;;;;;;;3.20;1.15;;;;;;;7.39;81.25;100164.53;5033808;28;20108;-84
2021/05/17 05:02:25;;;;;;;3.03;1.15;;;;;;;7.42;81.44;100174.06;5016346;28;20427;-84
2021/05/17 05:04:51;;;;;;;1.98;1.00;;;;;;;7.44;81.64;100178.22;5020695;28;20439;-84
2021/05/17 05:07:18;;;;;;;3.38;1.10;;;;;;;7.34;81.43;100161.53;5015523;28;20079;-84
2021/05/17 05:09:44;;;;;;;3.15;1.02;;;;;;;7.36;81.62;100161.38;5016485;28;20035;-84
2021/05/17 05:12:09;;;;;;;2.40;1.27;;;;;;;7.47;81.68;100183.22;5005404;28;20116;-83
2021/05/17 05:14:35;;;;;;;3.15;1.00;;;;;;;7.49;81.09;100172.38;5016729;28;20095;-83
2021/05/17 05:17:00;;;;;;;1.92;1.20;;;;;;;7.53;81.38;100171.00;5018363;28;20029;-83
2021/05/17 05:19:25;;;;;;;4.18;1.00;;;;;;;7.54;81.38;100171.84;5011918;28;20117;-84
2021/05/17 05:21:51;;;;;;;1.95;0.90;;;;;;;7.63;81.06;100179.69;5014681;28;20439;-83
2021/05/17 05:24:16;;;;;;;4.75;1.23;;;;;;;7.42;81.51;100147.31;5030105;28;20018;-84
2021/05/17 05:31:48;;;;;;;2.20;1.27;;;;;;;7.78;81.52;100184.31;5025730;28;20108;-84
2021/05/17 05:34:14;;;;;;;2.15;1.17;;;;;;;7.59;81.66;100180.19;5016885;28;20179;-83
2021/05/17 05:36:40;;;;;;;2.78;1.23;;;;;;;7.67;81.76;100204.25;5013834;28;20536;-83
2021/05/17 05:39:05;;;;;;;2.58;1.17;;;;;;;7.61;81.94;100210.28;5013415;28;20032;-84
2021/05/17 05:41:31;;;;;;;2.13;1.35;;;;;;;7.61;81.93;100221.00;5029621;28;20027;-83
2021/05/17 05:43:57;;;;;;;4.30;1.60;;;;;;;7.50;82.17;100200.78;5017088;28;20108;-83
2021/05/17 05:46:22;;;;;;;2.75;1.25;;;;;;;7.45;81.97;100198.59;5032491;28;20040;-83
2021/05/17 05:48:48;;;;;;;3.60;1.48;;;;;;;7.49;81.99;100221.34;5029806;28;20029;-83
2021/05/17 05:51:22;;;;;;;3.95;1.50;;;;;;;7.54;82.59;100220.00;5013363;28;20036;-83
2021/05/17 05:53:48;;;;;;;1.90;1.20;;;;;;;7.59;82.09;100218.47;5016859;28;20036;-84
2021/05/17 05:56:13;;;;;;;3.75;1.30;;;;;;;7.66;82.35;100226.69;5031481;28;20021;-83
2021/05/17 05:58:42;;;;;;;4.05;1.70;;;;;;;7.58;82.38;100206.13;5024044;28;20048;-84
2021/05/17 06:01:09;;;;;;;3.80;1.38;;;;;;;7.72;82.74;100229.50;5026239;28;20115;-83
2021/05/17 06:03:34;;;;;;;1.52;1.15;;;;;;;7.71;81.86;100218.97;5031187;28;20022;-83
2021/05/17 06:06:00;;;;;;;2.60;1.30;;;;;;;7.57;82.56;100191.09;5035730;28;20660;-83
2021/05/17 06:08:26;;;;;;;2.15;1.30;;;;;;;7.93;81.99;100234.31;5021560;28;20079;-85
2021/05/17 06:10:51;;;;;;;2.38;1.40;;;;;;;7.91;81.88;100228.31;5028526;28;20105;-83
2021/05/17 06:13:17;;;;;;;3.42;1.63;;;;;;;7.80;81.92;100209.91;5030555;28;20049;-83
2021/05/17 06:15:44;;;;;;;3.03;1.20;;;;;;;8.00;81.71;100237.13;5019356;28;20021;-83
2021/05/17 06:18:11;;;;;;;2.13;1.38;;;;;;;8.03;80.71;100222.56;5010076;28;20032;-83
2021/05/17 06:20:37;;;;;;;2.40;1.30;;;;;;;8.16;80.98;100241.59;5013268;28;20067;-83
2021/05/17 06:23:03;;;;;;;2.30;1.20;;;;;;;8.18;80.65;100220.84;5021390;28;20029;-83
2021/05/17 06:25:29;;;;;;;1.70;1.20;;;;;;;8.13;80.75;100221.38;5017455;28;20091;-83
2021/05/17 06:27:55;;;;;;;2.00;1.55;;;;;;;8.21;81.34;100228.53;5036010;28;20720;-84
2021/05/17 06:30:21;;;;;;;3.70;1.40;;;;;;;8.26;81.21;100223.50;5016700;28;20040;-83
2021/05/17 06:32:48;;;;;;;2.97;1.60;;;;;;;8.39;80.60;100222.97;5029323;28;20017;-83
2021/05/17 06:35:16;;;;;;;3.53;1.25;;;;;;;8.53;80.58;100226.75;5016821;28;20025;-84
2021/05/17 06:37:41;;;;;;;3.38;1.40;;;;;;;8.47;80.22;100206.84;5031369;28;20021;-83
2021/05/17 06:40:08;;;;;;;2.95;1.40;;;;;;;8.73;80.06;100246.75;5024219;28;20036;-83
2021/05/17 06:42:34;;;;;;;1.98;1.33;;;;;;;8.83;79.33;100249.19;5031367;28;20032;-83
2021/05/17 06:44:59;;;;;;;2.78;1.50;;;;;;;8.89;79.08;100253.00;5004029;28;20025;-83
2021/05/17 06:47:25;;;;;;;2.10;1.35;;;;;;;9.09;78.72;100261.44;5024322;28;20028;-84
2021/05/17 06:49:51;;;;;;;2.50;1.30;;;;;;;9.26;77.71;100265.63;5031588;28;20112;-84
2021/05/17 06:52:18;;;;;;;5.82;1.55;;;;;;;9.11;77.80;100230.75;5009940;28;20024;-83
2021/05/17 06:54:44;;;;;;;1.77;1.20;;;;;;;9.32;78.13;100258.75;5016819;28;20108;-83
2021/05/17 06:59:47;;;;;;;1.92;1.20;;;;;;;9.56;77.54;100266.59;5022697;28;20026;-84
2021/05/17 07:02:21;;;;;;;2.88;1.23;;;;;;;9.64;77.74;100281.78;5012007;28;20193;-84
2021/05/17 07:04:47;;;;;;;4.72;1.40;;;;;;;9.50;77.61;100270.00;5004763;28;20095;-84
2021/05/17 07:07:21;;;;;;;4.80;1.58;;;;;;;9.58;77.73;100275.31;5025725;28;20029;-84
2021/05/17 07:12:31;;;;;;;2.97;1.17;;;;;;;9.87;76.78;100287.09;5027764;28;20033;-84
2021/05/17 07:14:59;;;;;;;4.43;1.85;;;;;;;9.97;76.81;100284.97;5011088;28;20041;-84
2021/05/17 07:17:25;;;;;;;3.20;1.23;;;;;;;10.05;76.57;100292.97;5008329;28;20033;-84
2021/05/17 07:19:50;;;;;;;2.85;1.30;;;;;;;10.16;76.88;100288.16;5019468;28;20033;-84
2021/05/17 07:24:59;;;;;;;5.05;1.50;;;;;;;10.51;75.44;100298.19;5029014;28;20036;-83
2021/05/17 07:27:25;;;;;;;4.38;1.52;;;;;;;10.54;75.34;100287.06;5009728;28;20026;-83
2021/05/17 07:29:51;;;;;;;4.13;1.40;;;;;;;10.76;75.27;100296.03;5010375;28;20104;-83
2021/05/17 07:32:17;;;;;;;3.30;1.70;;;;;;;10.97;74.88;100308.69;5005864;28;20113;-84
2021/05/17 07:34:42;;;;;;;3.88;1.52;;;;;;;10.93;74.58;100298.50;5027467;28;20025;-84
2021/05/17 07:37:08;;;;;;;1.75;1.27;;;;;;;11.00;74.59;100294.03;5013423;28;20080;-84
2021/05/17 07:39:34;;;;;;;2.70;1.40;;;;;;;11.15;73.89;100307.44;5025942;28;20484;-83
2021/05/17 07:42:00;;;;;;;7.13;1.65;;;;;;;11.17;74.12;100302.72;5028564;28;20083;-84
2021/05/17 07:44:26;;;;;;;2.70;1.33;;;;;;;11.13;73.40;100287.94;5028634;28;20029;-84
2021/05/17 07:46:51;;;;;;;5.25;1.60;;;;;;;11.52;73.14;100308.22;5015508;28;20450;-78
2021/05/17 07:49:40;;;;;;;2.15;1.25;;;;;;;11.70;72.27;100305.91;5028923;28;20171;-79
2021/05/17 07:52:04;;;;;;;4.00;1.85;;;;;;;11.85;71.33;100309.34;5027092;28;20120;-78
2021/05/17 07:54:29;;;;;;;5.30;1.30;;;;;;;12.00;70.98;100303.06;5029099;28;20033;-77
2021/05/17 07:56:55;;;;;;;3.70;1.30;;;;;;;12.08;70.19;100308.28;5028942;28;20025;-79
2021/05/17 07:59:20;;;;;;;4.40;1.48;;;;;;;12.06;70.38;100299.56;5030847;28;20032;-78
2021/05/17 08:01:46;;;;;;;5.57;1.40;;;;;;;12.18;69.99;100303.38;5025864;28;20033;-78
2021/05/17 08:04:12;;;;;;;4.38;1.63;;;;;;;12.34;68.80;100314.91;5024637;28;20045;-78
2021/05/17 08:06:37;;;;;;;3.70;1.30;;;;;;;12.32;68.21;100321.28;5030977;28;20392;-78
2021/05/17 08:09:03;;;;;;;2.80;1.17;;;;;;;12.24;68.55;100315.25;5030328;28;20026;-78
2021/05/17 08:11:28;;;;;;;3.90;1.30;;;;;;;12.40;68.62;100316.78;5013159;28;20052;-84
2021/05/17 08:13:54;;;;;;;2.25;1.02;;;;;;;12.68;67.67;100322.13;5031434;28;20403;-84
2021/05/17 08:16:22;;;;;;;5.55;1.08;;;;;;;12.87;67.45;100321.38;5006746;28;20025;-83
2021/05/17 08:18:48;;;;;;;2.03;1.02;;;;;;;13.00;66.58;100317.91;5024783;28;20021;-85
2021/05/17 08:21:14;;;;;;;2.03;1.00;;;;;;;12.84;65.96;100315.56;5026911;28;20029;-84
2021/05/17 08:23:39;;;;;;;2.00;1.17;;;;;;;12.71;67.03;100317.16;5020375;28;20112;-83
2021/05/17 08:26:07;;;;;;;2.88;1.23;;;;;;;12.62;66.82;100317.53;5006499;28;20244;-84
2021/05/17 08:28:33;;;;;;;3.17;1.27;;;;;;;12.54;66.51;100310.44;5006195;28;20045;-84
2021/05/17 08:30:59;;;;;;;2.38;1.10;;;;;;;12.55;66.13;100312.09;5025959;28;20108;-84
2021/05/17 08:33:25;;;;;;;2.13;1.20;;;;;;;12.93;65.72;100312.47;5027607;28;20082;-84
2021/05/17 08:35:51;;;;;;;4.65;1.20;;;;;;;13.25;65.42;100328.97;5029592;28;20144;-84
2021/05/17 08:38:17;;;;;;;4.63;1.23;;;;;;;13.60;64.10;100327.00;5011754;28;20028;-84
2021/05/17 08:40:44;;;;;;;3.08;1.20;;;;;;;13.92;63.04;100332.63;5029944;28;20033;-84
2021/05/17 08:43:09;;;;;;;3.80;1.08;;;;;;;13.60;61.88;100318.91;5013066;28;20622;-84
2021/05/17 08:45:35;;;;;;;3.35;1.10;;;;;;;13.45;62.75;100334.47;5030326;28;20028;-85
2021/05/17 08:48:01;;;;;;;3.47;0.90;;;;;;;13.19;63.55;100322.53;5018933;28;20049;-84
2021/05/17 08:50:26;;;;;;;3.13;2.05;;;;;;;12.95;63.68;100325.78;5029816;28;20030;-84
2021/05/17 08:52:52;;;;;;;1.48;0.95;;;;;;;12.75;62.87;100320.28;5031813;28;20033;-84
2021/05/17 08:55:18;;;;;;;1.80;1.00;;;;;;;12.66;62.96;100322.31;5011157;28;20439;-84
2021/05/17 08:57:48;;;;;;;2.47;1.00;;;;;;;12.64;62.66;100332.47;5029158;28;20029;-84
2021/05/17 09:00:17;;;;;;;4.10;0.93;;;;;;;12.55;62.92;100314.81;5029891;28;20661;-84
2021/05/17 09:02:42;;;;;;;2.70;0.88;;;;;;;12.73;62.74;100325.91;5027957;28;20488;-85
2021/05/17 09:05:26;;;;;;;2.30;0.90;;;;;;;13.23;61.80;100320.25;5030147;28;20151;-84
2021/05/17 09:07:53;;;;;;;1.35;0.98;;;;;;;13.96;60.57;100322.22;5029782;28;20140;-84
2021/05/17 09:10:20;;;;;;;4.05;1.20;;;;;;;14.36;59.74;100320.28;5013705;28;20440;-84
2021/05/17 09:13:13;;;;;;;2.40;0.85;;;;;;;14.48;58.13;100325.91;5029891;28;20110;-85
2021/05/17 09:15:40;;;;;;;4.18;1.02;;;;;;;14.41;57.44;100325.06;5022033;28;20110;-84
2021/05/17 09:18:11;;;;;;;2.67;1.20;;;;;;;14.29;58.19;100323.03;5029339;28;20477;-85
2021/05/17 09:20:38;;;;;;;2.65;0.80;;;;;;;14.12;58.28;100307.44;5018153;28;20400;-85
2021/05/17 09:23:13;;;;;;;2.55;1.00;;;;;;;13.98;57.78;100306.63;5029429;28;20030;-84
2021/05/17 09:25:54;;;;;;;3.92;1.27;;;;;;;14.06;58.00;100326.16;5022606;28;20021;-85
2021/05/17 09:28:23;;;;;;;2.63;1.00;;;;;;;13.88;57.93;100323.25;5019281;28;20021;-84
2021/05/17 09:30:50;;;;;;;4.80;1.00;;;;;;;13.84;58.45;100324.75;5030255;28;20571;-84
2021/05/17 09:33:17;;;;;;;1.73;1.00;;;;;;;13.71;58.77;100339.06;5029481;28;20018;-85
2021/05/17 09:35:44;;;;;;;4.90;2.17;;;;;;;13.50;58.88;100337.38;5028667;28;20025;-85
2021/05/17 09:38:25;;;;;;;6.78;1.42;;;;;;;13.25;59.94;100330.84;5029004;28;20112;-84
2021/05/17 09:40:59;;;;;;;2.78;1.20;;;;;;;13.04;60.53;100331.81;5013128;28;20614;-84
2021/05/17 09:43:25;;;;;;;1.73;0.90;;;;;;;12.85;61.30;100328.00;5030013;28;20075;-85
2021/05/17 09:45:51;;;;;;;4.28;1.48;;;;;;;12.78;61.40;100328.00;5029118;28;20025;-85
2021/05/17 09:48:18;;;;;;;4.20;1.13;;;;;;;12.84;61.35;100342.53;5025894;28;20522;-85
2021/05/17 09:50:57;;;;;;;2.00;0.98;;;;;;;12.61;61.84;100321.25;5030367;28;20033;-84
2021/05/17 09:53:24;;;;;;;3.40;0.82;;;;;;;12.63;61.90;100316.50;5034470;28;20025;-83
2021/05/17 09:55:49;;;;;;;5.90;1.33;;;;;;;12.74;61.72;100319.44;5014506;28;20030;-84
2021/05/17 09:58:41;;;;;;;2.55;1.02;;;;;;;13.10;61.39;100344.53;5014266;28;20036;-85
2021/05/17 10:01:12;;;;;;;2.28;1.10;;;;;;;13.24;60.26;100332.72;5011380;28;20657;-84
2021/05/17 10:03:43;;;;;;;3.60;1.10;;;;;;;13.37;59.73;100337.34;5006846;28;20053;-83
2021/05/17 10:06:11;;;;;;;2.60;1.80;;;;;;;13.40;59.68;100334.25;5030279;28;20033;-84
2021/05/17 10:08:37;;;;;;;3.45;1.00;;;;;;;13.24;59.03;100327.31;5007968;28;20017;-83
2021/05/17 10:11:03;;;;;;;2.22;1.10;;;;;;;13.21;59.67;100338.53;5026645;28;20032;-84
2021/05/17 10:13:33;;;;;;;3.47;1.40;;;;;;;13.07;60.05;100334.97;5031844;28;20484;-84
2021/05/17 10:16:00;;;;;;;2.10;1.10;;;;;;;13.12;60.79;100343.25;5030016;28;20113;-85
2021/05/17 10:18:26;;;;;;;2.15;1.10;;;;;;;13.14;60.92;100334.97;5025562;28;20484;-83
2021/05/17 10:20:52;;;;;;;4.53;1.48;;;;;;;13.16;60.82;100336.44;5013176;28;20040;-84
2021/05/17 10:23:17;;;;;;;3.03;1.13;;;;;;;13.29;60.34;100334.84;5013155;28;20503;-84
2021/05/17 10:25:43;;;;;;;2.75;1.17;;;;;;;13.48;60.60;100331.34;5029718;28;20052;-84
2021/05/17 10:28:17;;;;;;;1.33;1.00;;;;;;;13.64;59.46;100333.63;5029329;28;20021;-84
2021/05/17 10:30:43;;;;;;;2.22;0.82;;;;;;;13.72;58.09;100339.91;5011554;28;20084;-84
2021/05/17 10:33:11;;;;;;;1.40;0.90;;;;;;;13.81;58.07;100342.19;5036035;28;20017;-84
2021/05/17 10:35:42;;;;;;;1.83;0.90;;;;;;;13.91;58.07;100339.06;5029638;28;20109;-86
2021/05/17 10:38:23;;;;;;;3.30;1.42;;;;;;;14.06;57.37;100338.84;5030797;28;20039;-84
2021/05/17 10:40:53;;;;;;;1.65;1.00;;;;;;;14.20;57.59;100336.97;5028321;28;20155;-85
2021/05/17 10:44:10;;;;;;;3.33;0.90;;;;;;;14.25;57.44;100343.41;5030608;28;20054;-85
2021/05/17 10:46:40;;;;;;;1.80;1.00;;;;;;;14.30;56.25;100343.59;5028357;28;20037;-84
2021/05/17 10:49:28;;;;;;;1.70;1.00;;;;;;;14.59;55.35;100344.22;5027711;28;20503;-83
2021/05/17 10:52:18;;;;;;;2.70;0.90;;;;;;;14.79;55.21;100322.50;5024350;28;20056;-83
2021/05/17 10:54:45;;;;;;;1.35;0.95;;;;;;;15.13;53.97;100347.53;5020412;28;20038;-85
2021/05/17 10:57:19;;;;;;;1.58;1.08;;;;;;;15.07;54.32;100343.00;5013221;28;20033;-84
2021/05/17 11:02:39;;;;;;;2.33;1.55;;;;;;;15.31;54.54;100358.50;5029102;28;20024;-84
2021/05/17 11:05:18;;;;;;;1.85;0.95;;;;;;;14.99;54.26;100362.19;5010877;28;20104;-84
2021/05/17 11:07:54;;;;;;;1.63;1.00;;;;;;;14.56;55.00;100360.88;5026642;28;20033;-84
2021/05/17 11:10:37;;;;;;;3.15;1.20;;;;;;;14.27;55.46;100362.13;5011130;28;20435;-84
2021/05/17 11:13:11;;;;;;;3.92;1.40;;;;;;;14.30;56.28;100359.84;5027296;28;20017;-84
2021/05/17 11:15:56;;;;;;;1.40;0.90;;;;;;;14.48;55.48;100369.19;5011563;28;20750;-84
2021/05/17 11:18:27;;;;;;;1.58;1.00;;;;;;;14.69;55.19;100368.13;5029037;28;20488;-85
2021/05/17 11:20:57;;;;;;;1.95;0.98;;;;;;;14.85;55.97;100356.84;5025504;28;20365;-84
2021/05/17 11:23:24;;;;;;;3.72;0.90;;;;;;;15.26;55.34;100369.13;5032729;28;20044;-84
2021/05/17 11:28:36;;;;;;;2.92;0.93;;;;;;;15.51;54.12;100366.50;5028124;28;20030;-85
2021/05/17 11:31:29;;;;;;;3.90;1.10;;;;;;;15.73;53.39;100375.16;5029305;28;20025;-85
2021/05/17 11:34:01;;;;;;;1.33;1.00;;;;;;;16.59;51.37;100368.16;5028085;28;20104;-83
2021/05/17 11:36:48;;;;;;;2.47;0.93;;;;;;;16.84;49.93;100370.81;5029397;28;20028;-85
2021/05/17 11:39:27;;;;;;;4.18;1.05;;;;;;;16.82;50.28;100372.09;5023235;28;20049;-84
2021/05/17 11:41:59;;;;;;;2.65;1.00;;;;;;;16.63;50.03;100368.53;5027827;28;20104;-84
2021/05/17 11:45:09;;;;;;;1.67;0.80;;;;;;;16.24;49.16;100344.28;5028850;28;20034;-85
2021/05/17 11:47:35;;;;;;;2.53;0.80;;;;;;;16.58;48.11;100376.53;5008198;28;20025;-83
2021/05/17 11:50:02;;;;;;;1.48;0.85;;;;;;;16.41;49.14;100362.72;5027596;28;20041;-84
2021/05/17 11:52:30;;;;;;;1.30;0.80;;;;;;;16.32;47.55;100380.31;5028826;28;20037;-85
2021/05/17 11:54:56;;;;;;;3.50;0.85;;;;;;;16.01;48.74;100382.06;5012141;28;20037;-85
2021/05/17 11:57:26;;;;;;;2.15;1.15;;;;;;;15.99;49.46;100384.16;5023719;28;20025;-85
2021/05/17 11:59:52;;;;;;;1.98;1.00;;;;;;;15.46;50.61;100379.88;5029573;28;20112;-84
2021/05/17 12:02:18;;;;;;;2.55;0.90;;;;;;;15.01;52.68;100373.66;5031055;28;20121;-86